WMKJ/JHB METAR and TAF weather

Enter ICAO airport designator
Station Type Date Time Source
WMKJ METAR 2019/08/18 09:00 UTC NOAA

WMKJ 180900Z 12010KT 050V190 9999 FEW018 BKN300 33/21 Q1008


Station Type Date Time Source
WMKJ Decoded METAR 2019/08/18 09:00 UTC NOAA

Station name not available
Aug 18, 2019 - 05:00 AM EDT / 2019.08.18 0900 UTC
Wind: from the ESE (120 degrees) at 12 MPH (10 KT) (direction variable):0
Visibility: greater than 7 mile(s):0
Sky conditions: mostly cloudy
Temperature: 91 F (33 C)
Heat index: 96.1 F (35.6 C):1
Dew Point: 69 F (21 C)
Relative Humidity: 49%
Pressure (altimeter): 29.77 in. Hg (1008 hPa)
ob: WMKJ 180900Z 12010KT 050V190 9999 FEW018 BKN300 33/21 Q1008
cycle: 9

Station Type Date Time Source
WMKJ TAF 2019/08/18 06:09 UTC NOAA

TAF TAF WMKJ 180500Z 1806/1906 14008KT 9999 FEW018
TEMPO 1808/1812 15008G20KT 3000 TSRA FEW016CB SCT018
BECMG 1812/1813 VRB03KT FEW022

Example: see airport list